Etusivu
METAR-TAF:

METAR-TAF

Lentoasemat :

Baker Laken lentoasema

Baker Lake, Nunavut, Kanada

Leveyspiiri: 64-18N, Pituuspiiri: 096-05W, korkeus merenpinnasta: 18 m

Tämänhetkinen sää

Tämä raportti tehtiin 40 minuuttia sitten, kello 16.00 UTC
Tuuli 3 kn eri suunnista
Lämpötila -29°C
Kosteus 62%
Ilmanpaine 1038 hPa
Näkyvyys: 32.2 km
selkeää
jääkiteitä

METAR: CYBK 251600Z VRB03KT 20SM IC SKC M29/M34 A3065 RMK SLP382

Aika: 10:40 (16:40 UTC)

Sääennuste

Tämä raportti tehtiin 5 tuntia ja 2 minuuttia sitten, kello 11.38 UTC
Ennuste voimassa 25. päivästä klo 12 UTC - 25. päivään klo 24 UTC
Tuuli 15 kn lännestä/luoteesta
Näkyvyys: 10 km
selkeää

TAF: CYBK 251138Z 2512/2524 30015KT P6SM SKC RMK NXT FCST BY 251800Z

Säähavainnot ja -ennusteet yli 4000 lentoasemalta (METAR- ja TAF-raportit).

Käytössä olevat sääasemat on merkitty karttaan keltaisilla ja punaisilla pisteillä.

Aseta hiiri pisteen päälle nähdäksesi sääaseman nimen.

Klikkaa sitten nähdäksesi säähavainnot ja -ennusteet.

Kartan vaihtaminen: klikkaa mustalla rastilla varustettuja vihreitä pisteitä, niin voit zoomata sisään; viivalla varustettua vihreää pistettä, niin voit zoomata ulos tai vihreitä nuolia, niin pääset viereisille kartoille.


METAR-TAF: